Time;durP1;ratioP1;P1;durP2;ratioP2;P2;SDS_P1;SDS_P2;PMS_P1;PMS_P2;Temp;Humidity;BMP_temperature;BMP_pressure;BME280_temperature;BME280_humidity;BME280_pressure;Samples;Min_cycle;Max_cycle;Signal;HPM_P1;HPM_P2
2022/08/02 00:02:03;;;;;;;15.25;4.03;;;;;;;18.05;73.69;101451.53;5053149;28;20049;-59
2022/08/02 00:04:30;;;;;;;18.02;4.22;;;;;;;18.01;74.02;101456.44;5052387;28;20041;-59
2022/08/02 00:06:57;;;;;;;14.73;4.53;;;;;;;18.00;72.94;101455.56;5052879;28;20399;-59
2022/08/02 00:09:24;;;;;;;12.27;4.15;;;;;;;18.03;72.32;101455.22;5052627;28;20033;-59
2022/08/02 00:11:50;;;;;;;13.32;3.97;;;;;;;18.03;72.21;101455.22;5053123;28;20094;-59
2022/08/02 00:14:17;;;;;;;12.18;4.10;;;;;;;18.02;73.67;101458.06;5052748;28;20077;-60
2022/08/02 00:16:44;;;;;;;13.75;4.45;;;;;;;17.95;74.19;101455.28;5052917;28;20065;-59
2022/08/02 00:19:10;;;;;;;15.68;4.53;;;;;;;17.94;74.20;101453.63;5052703;28;20041;-59
2022/08/02 00:21:37;;;;;;;15.73;4.88;;;;;;;17.89;73.46;101444.47;5053164;28;20452;-59
2022/08/02 00:24:04;;;;;;;17.25;4.28;;;;;;;17.82;74.07;101442.50;5052863;28;20036;-59
2022/08/02 00:26:31;;;;;;;15.13;4.63;;;;;;;17.87;74.31;101449.22;5052951;28;20065;-59
2022/08/02 00:28:57;;;;;;;11.80;4.15;;;;;;;17.86;73.41;101445.66;5052510;28;20056;-59
2022/08/02 00:31:24;;;;;;;12.55;4.10;;;;;;;17.76;73.46;101448.59;5052116;28;20049;-59
2022/08/02 00:33:51;;;;;;;14.27;4.47;;;;;;;17.72;73.63;101446.47;5052647;28;20076;-59
2022/08/02 00:36:17;;;;;;;12.50;4.18;;;;;;;17.64;73.77;101440.19;5051591;28;20041;-59
2022/08/02 00:38:45;;;;;;;11.52;4.28;;;;;;;17.68;73.85;101445.16;5051646;28;20106;-59
2022/08/02 00:41:13;;;;;;;9.07;4.35;;;;;;;17.70;74.27;101438.63;5052874;28;20049;-59
2022/08/02 00:43:40;;;;;;;13.57;4.35;;;;;;;17.72;75.23;101439.25;5052587;28;20127;-59
2022/08/02 00:46:07;;;;;;;15.05;4.47;;;;;;;17.65;75.47;101425.75;5052646;28;20799;-59
2022/08/02 00:48:35;;;;;;;12.40;4.72;;;;;;;17.61;75.93;101421.78;5052670;28;20045;-59
2022/08/02 00:51:03;;;;;;;16.85;4.65;;;;;;;17.56;76.07;101426.84;5052210;28;20411;-59
2022/08/02 00:53:30;;;;;;;14.85;4.75;;;;;;;17.59;76.10;101434.53;5052301;28;20449;-59
2022/08/02 00:55:57;;;;;;;14.70;4.40;;;;;;;17.63;76.23;101427.78;5051216;28;20045;-59
2022/08/02 00:58:24;;;;;;;13.68;4.57;;;;;;;17.58;76.49;101432.84;5053218;28;20452;-59
2022/08/02 01:00:50;;;;;;;12.15;4.53;;;;;;;17.56;76.33;101424.16;5055525;28;20045;-59
2022/08/02 01:03:17;;;;;;;17.60;4.68;;;;;;;17.58;75.31;101430.19;5055765;28;20049;-59
2022/08/02 01:05:44;;;;;;;11.07;4.57;;;;;;;17.59;75.08;101439.91;5056254;28;20045;-61
2022/08/02 01:08:18;;;;;;;14.80;5.00;;;;;;;17.49;75.75;101442.00;5054792;28;20045;-60
2022/08/02 01:10:45;;;;;;;16.83;4.82;;;;;;;17.44;76.31;101437.22;5055870;28;20491;-59
2022/08/02 01:13:11;;;;;;;14.45;4.93;;;;;;;17.46;76.77;101437.84;5055734;28;20428;-59
2022/08/02 01:15:44;;;;;;;11.63;4.72;;;;;;;17.55;76.63;101435.06;5055712;28;20071;-59
2022/08/02 01:18:28;;;;;;;13.98;4.70;;;;;;;17.52;76.84;101436.28;5055946;28;20057;-59
2022/08/02 01:24:26;;;;;;;12.50;4.95;;;;;;;17.55;77.10;101433.22;5111059;27;20376;-59
2022/08/02 01:27:19;;;;;;;19.05;4.90;;;;;;;17.56;77.03;101423.34;5110812;28;20051;-58
2022/08/02 01:29:52;;;;;;;12.38;5.00;;;;;;;17.50;76.71;101416.88;5111029;28;20043;-58
2022/08/02 01:32:26;;;;;;;13.23;4.80;;;;;;;17.51;77.07;101421.19;5109982;28;20063;-58
2022/08/02 01:35:00;;;;;;;14.45;5.35;;;;;;;17.50;77.28;101413.31;5110483;28;20575;-58
2022/08/02 01:37:34;;;;;;;15.07;5.07;;;;;;;17.54;77.46;101411.97;5111144;28;20405;-58
2022/08/02 01:40:07;;;;;;;12.00;4.50;;;;;;;17.44;77.98;101401.47;5111011;28;20101;-58
2022/08/02 01:42:36;;;;;;;13.23;5.28;;;;;;;17.41;77.69;101413.44;5109560;28;20042;-58
2022/08/02 01:45:05;;;;;;;15.90;5.65;;;;;;;17.35;77.89;101410.63;5110371;28;20059;-58
2022/08/02 01:47:35;;;;;;;13.82;4.78;;;;;;;17.37;77.88;101420.19;5110793;28;20089;-59
2022/08/02 01:50:06;;;;;;;12.93;4.78;;;;;;;17.32;78.39;101410.97;5109562;28;20052;-58
2022/08/02 01:52:36;;;;;;;13.57;4.85;;;;;;;17.37;78.80;101414.81;5110674;28;20110;-58
2022/08/02 01:57:47;;;;;;;13.38;5.30;;;;;;;17.40;78.80;101410.91;5111091;27;20579;-58
2022/08/02 02:00:16;;;;;;;15.95;4.97;;;;;;;17.38;78.65;101410.28;5111152;28;20082;-58
2022/08/02 02:02:46;;;;;;;21.17;5.18;;;;;;;17.38;78.57;101411.09;5110927;28;20525;-58
2022/08/02 02:05:16;;;;;;;17.52;5.43;;;;;;;17.35;78.58;101416.00;5110560;28;20051;-58
2022/08/02 02:07:45;;;;;;;14.70;5.00;;;;;;;17.38;78.88;101418.31;5110989;28;20039;-57
2022/08/02 02:10:16;;;;;;;15.65;4.97;;;;;;;17.30;78.97;101402.28;5110856;28;20492;-57
2022/08/02 02:12:46;;;;;;;13.80;5.60;;;;;;;17.33;78.91;101410.81;5110899;28;20102;-58
2022/08/02 02:15:14;;;;;;;14.05;5.28;;;;;;;17.21;79.11;101412.28;5109517;28;20044;-58
2022/08/02 02:17:43;;;;;;;16.77;5.22;;;;;;;17.22;78.80;101403.22;5110612;28;20493;-57
2022/08/02 02:20:13;;;;;;;17.25;5.63;;;;;;;17.14;78.68;101400.63;5110738;28;20076;-57
2022/08/02 02:22:40;;;;;;;15.30;5.35;;;;;;;17.10;78.77;101410.88;5110778;28;20048;-57
2022/08/02 02:25:09;;;;;;;15.57;5.72;;;;;;;17.10;78.77;101402.84;5110770;28;20097;-57
2022/08/02 02:27:38;;;;;;;13.15;5.47;;;;;;;17.14;78.96;101396.09;5110490;28;20040;-57
2022/08/02 02:30:06;;;;;;;13.25;5.15;;;;;;;17.14;79.34;101400.63;5110468;28;20559;-59
2022/08/02 02:32:33;;;;;;;13.45;5.30;;;;;;;17.03;79.27;101399.19;5110217;28;20065;-59
2022/08/02 02:35:02;;;;;;;11.57;5.70;;;;;;;17.04;79.31;101392.81;5109806;28;20067;-59
2022/08/02 02:37:32;;;;;;;22.88;5.43;;;;;;;17.04;79.53;101406.22;5110042;28;20375;-59
2022/08/02 02:40:00;;;;;;;17.60;5.70;;;;;;;17.06;80.31;101397.00;5110126;28;20401;-59
2022/08/02 02:42:30;;;;;;;19.27;6.57;;;;;;;16.98;80.79;101405.09;5110201;28;20127;-59
2022/08/02 02:44:58;;;;;;;15.10;5.63;;;;;;;16.95;80.97;101397.41;5110516;28;20073;-59
2022/08/02 02:47:28;;;;;;;16.95;5.32;;;;;;;16.93;81.33;101393.25;5110125;28;20048;-59
2022/08/02 02:49:57;;;;;;;18.95;5.43;;;;;;;16.96;81.58;101400.94;5110067;28;20070;-58
2022/08/02 02:52:25;;;;;;;18.42;5.63;;;;;;;16.94;81.95;101389.56;5110131;28;20092;-59
2022/08/02 02:54:54;;;;;;;17.23;5.80;;;;;;;16.90;81.30;101386.41;5108571;28;20040;-58
2022/08/02 02:57:21;;;;;;;14.73;6.32;;;;;;;16.87;81.27;101376.03;5109494;28;20502;-59
2022/08/02 02:59:48;;;;;;;15.68;6.07;;;;;;;16.83;81.77;101380.94;5110086;28;20097;-58
2022/08/02 03:02:17;;;;;;;15.88;6.05;;;;;;;16.82;83.00;101376.53;5109654;28;20401;-59
2022/08/02 03:04:44;;;;;;;14.95;6.00;;;;;;;16.84;83.24;101374.53;5109189;28;20451;-59
2022/08/02 03:07:11;;;;;;;17.02;6.10;;;;;;;16.84;83.13;101371.03;5106703;28;20040;-59
2022/08/02 03:09:37;;;;;;;18.17;6.90;;;;;;;16.80;83.74;101375.06;5096148;28;20048;-59
2022/08/02 03:12:05;;;;;;;18.17;6.55;;;;;;;16.75;83.87;101375.59;5096103;28;20040;-59
2022/08/02 03:14:33;;;;;;;15.02;6.57;;;;;;;16.77;84.06;101386.13;5096170;28;20044;-59
2022/08/02 03:17:00;;;;;;;18.25;6.80;;;;;;;16.69;84.30;101377.13;5096007;28;20044;-59
2022/08/02 03:19:26;;;;;;;15.95;6.38;;;;;;;16.73;84.33;101372.25;5095915;28;20068;-59
2022/08/02 03:21:53;;;;;;;14.95;6.47;;;;;;;16.75;84.58;101374.75;5095068;28;20055;-59
2022/08/02 03:24:20;;;;;;;19.60;6.63;;;;;;;16.77;84.97;101381.63;5095827;28;20052;-59
2022/08/02 03:26:46;;;;;;;15.98;6.32;;;;;;;16.77;85.05;101380.78;5095968;28;20039;-59
2022/08/02 03:29:13;;;;;;;14.52;6.65;;;;;;;16.67;85.54;101371.13;5094660;28;20097;-59
2022/08/02 03:31:44;;;;;;;20.30;7.40;;;;;;;16.68;85.41;101378.19;5095404;28;20040;-58
2022/08/02 03:34:11;;;;;;;17.15;7.40;;;;;;;16.61;86.20;101373.72;5095702;28;20052;-58
2022/08/02 03:36:39;;;;;;;17.48;7.22;;;;;;;16.64;85.94;101378.69;5095496;28;20093;-59
2022/08/02 03:39:06;;;;;;;25.38;7.35;;;;;;;16.66;86.11;101369.50;5094151;28;20059;-59
2022/08/02 03:41:35;;;;;;;18.70;7.18;;;;;;;16.66;86.35;101374.00;5095794;28;20094;-58
2022/08/02 03:44:04;;;;;;;22.33;7.18;;;;;;;16.68;86.33;101367.47;5093150;28;20432;-59
2022/08/02 03:46:32;;;;;;;17.77;7.18;;;;;;;16.67;86.73;101367.63;5094911;28;20081;-59
2022/08/02 03:48:59;;;;;;;21.00;7.15;;;;;;;16.62;86.91;101370.00;5094795;28;20052;-59
2022/08/02 03:51:26;;;;;;;17.52;7.30;;;;;;;16.65;86.53;101366.97;5095103;28;20048;-58
2022/08/02 03:53:55;;;;;;;20.23;7.85;;;;;;;16.68;85.84;101366.59;5095394;28;20052;-58
2022/08/02 03:56:22;;;;;;;17.90;7.53;;;;;;;16.69;85.82;101368.28;5094828;28;20087;-58
2022/08/02 03:58:49;;;;;;;18.42;7.85;;;;;;;16.62;86.04;101367.31;5095086;28;20048;-59
2022/08/02 04:01:15;;;;;;;23.27;8.27;;;;;;;16.65;85.91;101375.03;5093824;28;20459;-58
2022/08/02 04:03:42;;;;;;;21.02;8.15;;;;;;;16.75;85.34;101380.13;5094693;28;20044;-58
2022/08/02 04:06:09;;;;;;;19.20;8.85;;;;;;;16.76;85.30;101373.78;5094932;28;20078;-58
2022/08/02 04:08:36;;;;;;;18.15;8.18;;;;;;;16.69;85.27;101371.78;5095239;28;20101;-58
2022/08/02 04:11:34;;;;;;;18.80;8.25;;;;;;;16.70;85.21;101378.00;5094947;28;20051;-58
2022/08/02 04:13:50;;;;;;;18.60;8.70;;;;;;;16.67;85.31;101371.13;5094810;28;20051;-58
2022/08/02 04:16:22;;;;;;;18.38;8.27;;;;;;;16.66;85.24;101372.16;5093650;28;20075;-58
2022/08/02 04:19:00;;;;;;;23.05;9.07;;;;;;;16.70;84.79;101368.09;5094461;28;20478;-58
2022/08/02 04:21:31;;;;;;;18.05;8.88;;;;;;;16.68;85.04;101380.00;5094595;28;20101;-58
2022/08/02 04:24:01;;;;;;;21.38;8.70;;;;;;;16.61;85.57;101379.91;5095136;28;20071;-58
2022/08/02 04:26:30;;;;;;;23.92;9.30;;;;;;;16.66;85.35;101385.56;5093689;28;20117;-58
2022/08/02 04:28:58;;;;;;;20.63;9.15;;;;;;;16.64;85.31;101381.38;5094637;28;20429;-58
2022/08/02 04:31:25;;;;;;;19.27;9.07;;;;;;;16.67;85.12;101376.50;5093873;28;20448;-58
2022/08/02 04:33:53;;;;;;;18.08;9.60;;;;;;;16.63;85.11;101388.59;5094669;28;20061;-58
2022/08/02 04:36:20;;;;;;;24.58;9.93;;;;;;;16.69;85.09;101389.72;5094520;28;20036;-58
2022/08/02 04:38:49;;;;;;;22.00;9.13;;;;;;;16.70;84.98;101380.69;5094530;28;20054;-58
2022/08/02 04:41:16;;;;;;;18.52;9.32;;;;;;;16.72;84.85;101385.84;5093188;28;20066;-58
2022/08/02 04:43:42;;;;;;;24.90;10.63;;;;;;;16.73;84.69;101382.16;5094436;28;20093;-58
2022/08/02 04:46:09;;;;;;;20.55;9.95;;;;;;;16.78;84.59;101385.97;5094599;28;20421;-58
2022/08/02 04:48:35;;;;;;;19.85;9.95;;;;;;;16.75;84.85;101385.47;5094129;28;20048;-58
2022/08/02 04:51:02;;;;;;;23.13;9.82;;;;;;;16.79;84.54;101384.09;5094449;28;20052;-58
2022/08/02 04:53:29;;;;;;;20.75;10.02;;;;;;;16.81;84.41;101388.28;5093987;28;20436;-59
2022/08/02 04:55:56;;;;;;;25.65;11.43;;;;;;;16.82;84.24;101389.94;5094223;28;20056;-59
2022/08/02 04:58:23;;;;;;;19.63;10.82;;;;;;;16.87;84.25;101384.91;5093840;28;20042;-59
2022/08/02 05:01:04;;;;;;;20.52;10.35;;;;;;;16.86;84.27;101393.97;5094467;28;20079;-59
2022/08/02 05:03:31;;;;;;;19.77;10.85;;;;;;;16.91;83.63;101395.28;5075378;28;20064;-59
2022/08/02 05:05:59;;;;;;;21.48;10.55;;;;;;;16.90;83.86;101391.78;5094021;28;20124;-59
2022/08/02 05:08:26;;;;;;;21.88;11.30;;;;;;;16.84;83.94;101393.28;5093895;28;20040;-59
2022/08/02 05:10:53;;;;;;;26.75;11.75;;;;;;;16.92;83.88;101392.41;5093964;28;20482;-59
2022/08/02 05:13:19;;;;;;;20.27;11.68;;;;;;;16.94;83.76;101389.56;5092505;28;20375;-59
2022/08/02 05:15:49;;;;;;;21.52;11.32;;;;;;;16.98;83.81;101386.34;5093926;28;20048;-59
2022/08/02 05:18:16;;;;;;;21.15;11.48;;;;;;;17.02;83.67;101387.63;5093586;28;20047;-59
2022/08/02 05:20:43;;;;;;;19.00;11.65;;;;;;;17.06;83.31;101385.41;5093892;28;20101;-59
2022/08/02 05:23:10;;;;;;;25.42;12.15;;;;;;;17.07;83.00;101387.91;5093482;28;20437;-59
2022/08/02 05:25:37;;;;;;;26.92;12.68;;;;;;;17.11;82.92;101385.72;5093727;28;20089;-59
2022/08/02 05:28:04;;;;;;;24.05;12.05;;;;;;;17.15;82.84;101384.31;5092271;28;20036;-60
2022/08/02 05:30:32;;;;;;;31.20;12.88;;;;;;;17.14;82.45;101392.56;5093386;28;20044;-59
2022/08/02 05:32:59;;;;;;;23.98;12.35;;;;;;;17.17;82.14;101386.84;5093184;28;20316;-59
2022/08/02 05:35:26;;;;;;;27.35;12.45;;;;;;;17.23;82.06;101384.25;5092774;28;20074;-59
2022/08/02 05:37:52;;;;;;;26.88;12.95;;;;;;;17.05;82.79;101383.78;5093207;28;20419;-59
2022/08/02 05:40:19;;;;;;;23.77;13.18;;;;;;;17.10;82.62;101394.78;5093524;28;20040;-59
2022/08/02 05:42:46;;;;;;;28.00;13.55;;;;;;;17.14;82.71;101396.09;5093255;28;20045;-59
2022/08/02 05:45:13;;;;;;;29.27;13.32;;;;;;;17.15;82.67;101396.91;5091227;28;20085;-59
2022/08/02 05:47:39;;;;;;;26.27;13.55;;;;;;;17.07;82.44;101393.28;5093134;28;20478;-59
2022/08/02 05:50:08;;;;;;;33.85;14.27;;;;;;;17.12;82.46;101398.13;5093344;28;20044;-59
2022/08/02 05:52:45;;;;;;;28.58;14.13;;;;;;;17.20;82.08;101387.31;5092413;28;20113;-59
2022/08/02 05:55:17;;;;;;;23.67;13.45;;;;;;;17.16;82.25;101388.69;5093249;28;20060;-58
2022/08/02 05:58:01;;;;;;;27.58;13.75;;;;;;;17.26;82.59;101389.28;5092929;28;20040;-58
2022/08/02 06:00:31;;;;;;;22.98;12.95;;;;;;;17.26;82.17;101386.59;5086534;28;20045;-58
2022/08/02 06:03:30;;;;;;;28.08;14.32;;;;;;;17.30;82.22;101386.22;5072959;28;20482;-58
2022/08/02 06:06:03;;;;;;;27.42;14.63;;;;;;;17.36;81.99;101385.50;5072676;28;20536;-60
2022/08/02 06:08:36;;;;;;;37.42;15.75;;;;;;;17.31;81.73;101386.03;5105629;28;20044;-59
2022/08/02 06:11:05;;;;;;;35.70;15.18;;;;;;;17.38;81.72;101386.13;5072982;28;20045;-59
2022/08/02 06:13:33;;;;;;;30.42;13.50;;;;;;;17.39;81.97;101385.97;5072631;28;20076;-59
2022/08/02 06:16:01;;;;;;;27.95;14.18;;;;;;;17.52;81.85;101385.31;5073117;28;20490;-59
2022/08/02 06:18:28;;;;;;;29.88;14.20;;;;;;;17.53;81.47;101392.34;5072662;28;20044;-59
2022/08/02 06:20:58;;;;;;;24.52;14.60;;;;;;;17.54;81.15;101391.34;5072600;28;20041;-59
2022/08/02 06:23:25;;;;;;;27.98;14.27;;;;;;;17.65;81.44;101379.31;5072711;28;20048;-59
2022/08/02 06:25:53;;;;;;;25.25;14.00;;;;;;;17.80;80.93;101379.31;5073000;28;20044;-59
2022/08/02 06:28:19;;;;;;;31.33;14.20;;;;;;;17.87;81.37;101385.63;5072668;28;20044;-60
2022/08/02 06:30:46;;;;;;;25.25;14.23;;;;;;;17.93;80.32;101384.03;5072113;28;20048;-59
2022/08/02 06:33:13;;;;;;;25.98;14.15;;;;;;;17.96;80.55;101371.06;5072598;28;20093;-60
2022/08/02 06:38:41;;;;;;;26.48;13.95;;;;;;;18.11;80.39;101380.97;5110952;27;20375;-58
2022/08/02 06:41:13;;;;;;;25.70;13.60;;;;;;;18.14;81.01;101377.91;5111026;28;20093;-58
2022/08/02 06:43:59;;;;;;;21.77;13.38;;;;;;;18.16;80.89;101387.41;5110970;28;20485;-58
2022/08/02 06:46:34;;;;;;;23.02;14.93;;;;;;;18.22;79.21;101383.97;5110552;28;20065;-59
2022/08/02 06:49:02;;;;;;;30.75;13.77;;;;;;;18.32;78.98;101372.94;5110522;28;20448;-59
2022/08/02 06:51:29;;;;;;;27.60;14.00;;;;;;;18.38;79.16;101384.78;5110596;28;20043;-59
2022/08/02 06:53:56;;;;;;;24.02;14.57;;;;;;;18.45;78.14;101384.88;5110969;28;20047;-59
2022/08/02 06:56:23;;;;;;;32.67;13.73;;;;;;;18.53;77.94;101393.59;5110665;28;20052;-58
2022/08/02 06:58:50;;;;;;;27.45;13.65;;;;;;;18.50;78.15;101385.09;5110718;28;20082;-58
2022/08/02 07:01:18;;;;;;;25.73;13.50;;;;;;;18.61;78.61;101376.56;5110587;28;20044;-59
2022/08/02 07:03:45;;;;;;;29.90;13.75;;;;;;;18.75;78.17;101382.88;5117383;27;20059;-59
2022/08/02 07:06:12;;;;;;;33.70;15.27;;;;;;;18.74;76.36;101381.22;5096578;28;20082;-60
2022/08/02 07:08:38;;;;;;;30.58;14.18;;;;;;;18.73;76.07;101383.06;5101159;28;20086;-60
2022/08/02 07:11:06;;;;;;;31.65;14.25;;;;;;;18.80;76.00;101375.06;5098460;28;20052;-60
2022/08/02 07:13:33;;;;;;;31.23;14.45;;;;;;;18.98;75.36;101385.38;5108299;28;20043;-60
2022/08/02 07:16:04;;;;;;;32.47;13.75;;;;;;;18.96;75.18;101376.69;5104439;28;20044;-61
2022/08/02 07:18:30;;;;;;;24.55;12.75;;;;;;;19.04;74.92;101381.91;5114237;27;20036;-61
2022/08/02 07:20:57;;;;;;;23.77;12.00;;;;;;;19.22;75.02;101372.53;5114148;27;20139;-61
2022/08/02 07:23:24;;;;;;;29.45;13.40;;;;;;;19.24;74.54;101374.00;5120202;28;20039;-61
2022/08/02 07:25:50;;;;;;;23.13;12.48;;;;;;;19.41;74.12;101371.00;5104866;28;20123;-61
2022/08/02 07:28:17;;;;;;;25.15;12.07;;;;;;;19.49;73.41;101373.56;5108200;28;20046;-61
2022/08/02 07:30:47;;;;;;;23.17;12.10;;;;;;;19.59;73.11;101371.31;5124721;27;20055;-61
2022/08/02 07:33:14;;;;;;;26.25;12.15;;;;;;;19.58;73.09;101374.22;5124430;27;20047;-61
2022/08/02 07:35:41;;;;;;;22.85;11.85;;;;;;;19.71;72.09;101374.28;5113481;28;20043;-61
2022/08/02 07:38:07;;;;;;;23.67;12.50;;;;;;;19.70;71.78;101376.16;5108671;28;20125;-60
2022/08/02 07:40:34;;;;;;;21.20;12.32;;;;;;;19.86;71.69;101376.88;5118588;28;20044;-60
2022/08/02 07:43:01;;;;;;;28.10;13.23;;;;;;;19.89;70.67;101376.47;5114202;27;20100;-60
2022/08/02 07:45:31;;;;;;;26.75;12.68;;;;;;;20.07;70.36;101373.25;5112817;27;20055;-60
2022/08/02 07:47:57;;;;;;;28.75;12.45;;;;;;;20.10;69.70;101365.59;5120589;27;20461;-60
2022/08/02 07:50:24;;;;;;;22.15;12.35;;;;;;;20.14;69.28;101368.72;5094668;28;20032;-60
2022/08/02 07:52:51;;;;;;;23.92;11.50;;;;;;;20.22;69.89;101371.22;5088805;28;20078;-60
2022/08/02 07:55:17;;;;;;;19.95;11.40;;;;;;;20.21;70.10;101366.88;5093682;28;20482;-60
2022/08/02 07:57:45;;;;;;;24.38;11.57;;;;;;;20.25;69.25;101370.00;5097264;28;20042;-60
2022/08/02 08:00:16;;;;;;;20.85;10.40;;;;;;;20.40;69.92;101369.81;5107723;28;20044;-61
2022/08/02 08:02:43;;;;;;;20.23;10.65;;;;;;;20.53;69.25;101364.44;5102107;28;20043;-61
2022/08/02 08:05:10;;;;;;;22.13;10.63;;;;;;;20.57;68.01;101373.78;5103348;28;20044;-61
2022/08/02 08:07:38;;;;;;;20.13;11.00;;;;;;;20.77;68.65;101356.84;5095460;28;20465;-61
2022/08/02 08:10:06;;;;;;;23.08;9.98;;;;;;;20.90;67.91;101351.44;5109199;28;20039;-60
2022/08/02 08:12:33;;;;;;;24.60;11.50;;;;;;;21.02;66.17;101357.03;5102477;28;20043;-61
2022/08/02 08:14:59;;;;;;;19.55;9.35;;;;;;;21.03;66.74;101364.94;5100141;28;20098;-61
2022/08/02 08:17:26;;;;;;;17.52;8.82;;;;;;;21.16;66.71;101363.28;5098494;28;20044;-60
2022/08/02 08:19:53;;;;;;;22.30;8.85;;;;;;;21.25;66.05;101345.81;5101205;28;20044;-60
2022/08/02 08:22:20;;;;;;;24.20;10.13;;;;;;;21.44;65.73;101338.72;5104194;28;20101;-61
2022/08/02 08:24:47;;;;;;;22.17;8.38;;;;;;;21.65;64.97;101349.28;5101712;28;20131;-61
2022/08/02 08:27:15;;;;;;;16.80;8.80;;;;;;;21.90;62.83;101343.13;5103188;28;20032;-61
2022/08/02 08:29:42;;;;;;;22.25;10.48;;;;;;;22.07;61.45;101348.91;5107397;28;20044;-61
2022/08/02 08:32:10;;;;;;;17.50;9.18;;;;;;;22.10;61.68;101350.31;5102388;28;20436;-60
2022/08/02 08:34:40;;;;;;;16.17;8.70;;;;;;;22.28;60.98;101346.94;5106897;28;20517;-60
2022/08/02 08:37:06;;;;;;;19.33;7.95;;;;;;;22.28;61.25;101353.16;5082997;27;20521;-60
2022/08/02 08:39:33;;;;;;;21.15;8.02;;;;;;;22.33;61.33;101345.22;5102561;28;20136;-60
2022/08/02 08:42:00;;;;;;;17.67;7.85;;;;;;;22.48;60.53;101342.22;5104895;28;20090;-60
2022/08/02 08:44:27;;;;;;;19.35;7.57;;;;;;;22.84;58.34;101340.69;5099377;28;20048;-59
2022/08/02 08:46:55;;;;;;;25.75;8.05;;;;;;;22.87;59.04;101345.69;5080361;28;20064;-59
2022/08/02 08:49:29;;;;;;;28.40;6.93;;;;;;;22.97;59.54;101342.47;5096833;28;20047;-60
2022/08/02 08:52:01;;;;;;;17.00;6.28;;;;;;;23.11;57.67;101349.44;5107578;28;20058;-60
2022/08/02 08:54:30;;;;;;;14.73;5.40;;;;;;;23.21;57.10;101343.50;5098755;28;20042;-60
2022/08/02 08:56:57;;;;;;;15.50;6.50;;;;;;;23.41;55.86;101345.19;5099375;28;20135;-60
2022/08/02 08:59:24;;;;;;;16.38;6.85;;;;;;;23.37;55.22;101345.63;5096528;28;20555;-59
2022/08/02 09:01:54;;;;;;;15.27;5.70;;;;;;;23.46;55.69;101348.03;5098091;28;20046;-59
2022/08/02 09:04:21;;;;;;;15.05;5.78;;;;;;;23.54;55.37;101339.63;5105427;28;20032;-60
2022/08/02 09:06:48;;;;;;;14.85;6.85;;;;;;;23.67;53.83;101338.66;5093702;28;20567;-59
2022/08/02 09:09:15;;;;;;;18.73;6.40;;;;;;;23.69;53.63;101331.13;5104947;28;20469;-61
2022/08/02 09:11:42;;;;;;;15.80;5.97;;;;;;;23.69;54.90;101325.72;5108733;28;20078;-59
2022/08/02 09:14:09;;;;;;;25.23;6.32;;;;;;;23.79;53.68;101322.44;5105785;28;20489;-59
2022/08/02 09:16:40;;;;;;;16.90;6.18;;;;;;;23.84;54.54;101317.22;5099845;28;20040;-59
2022/08/02 09:19:24;;;;;;;17.80;6.47;;;;;;;23.89;53.22;101320.06;5100089;28;20040;-59
2022/08/02 09:22:06;;;;;;;15.93;6.28;;;;;;;23.90;54.11;101317.13;5091945;28;20054;-59
2022/08/02 09:24:50;;;;;;;15.38;6.20;;;;;;;24.15;53.85;101316.97;5102361;28;20047;-59
2022/08/02 09:27:20;;;;;;;19.52;6.00;;;;;;;24.47;53.67;101318.63;5089455;28;20044;-59
2022/08/02 09:29:52;;;;;;;20.92;5.45;;;;;;;24.70;52.27;101318.69;5107664;28;20032;-59
2022/08/02 09:32:44;;;;;;;16.08;5.40;;;;;;;24.82;51.76;101326.81;5093697;28;20441;-59
2022/08/02 09:35:11;;;;;;;21.73;4.95;;;;;;;24.85;51.66;101322.78;5106844;28;20055;-59
2022/08/02 09:37:38;;;;;;;13.85;5.57;;;;;;;24.94;51.01;101326.00;5089689;28;20079;-59
2022/08/02 09:40:07;;;;;;;13.98;5.35;;;;;;;24.96;51.44;101321.16;5111596;28;20065;-59
2022/08/02 09:42:33;;;;;;;12.80;5.07;;;;;;;24.97;50.97;101320.91;5101080;28;20043;-59
2022/08/02 09:45:01;;;;;;;13.90;5.18;;;;;;;24.80;51.59;101312.66;5097140;28;20059;-59
2022/08/02 09:47:29;;;;;;;15.65;5.38;;;;;;;24.82;51.48;101309.72;5100348;28;20473;-59
2022/08/02 09:49:57;;;;;;;14.82;5.25;;;;;;;25.13;50.24;101313.94;5089681;28;20044;-59
2022/08/02 09:52:26;;;;;;;17.67;5.43;;;;;;;25.27;49.58;101309.16;5097214;28;20036;-59
2022/08/02 09:54:54;;;;;;;12.18;6.00;;;;;;;25.41;49.42;101305.09;5099123;28;20485;-59
2022/08/02 09:57:27;;;;;;;23.85;8.98;;;;;;;25.59;49.29;101306.00;5106712;28;20166;-59
2022/08/02 09:59:55;;;;;;;12.50;5.20;;;;;;;25.73;49.16;101298.41;5103893;28;20047;-60
2022/08/02 10:02:23;;;;;;;20.52;10.05;;;;;;;25.77;48.60;101303.09;5103261;28;20050;-59
2022/08/02 10:04:50;;;;;;;18.25;8.25;;;;;;;25.62;48.95;101309.06;5097771;28;20698;-59
2022/08/02 10:07:20;;;;;;;16.40;8.65;;;;;;;25.64;49.51;101292.50;5110328;28;20051;-59
2022/08/02 10:09:47;;;;;;;14.27;4.90;;;;;;;25.70;48.85;101301.59;5089081;28;20048;-61
2022/08/02 10:12:14;;;;;;;20.50;4.28;;;;;;;25.63;47.59;101304.44;5097723;28;20079;-59
2022/08/02 10:14:42;;;;;;;11.27;4.28;;;;;;;25.60;48.12;101304.94;5095003;28;20036;-59
2022/08/02 10:17:09;;;;;;;8.90;4.20;;;;;;;25.90;46.88;101303.88;5094224;28;20135;-59
2022/08/02 10:19:36;;;;;;;10.90;4.63;;;;;;;26.19;46.42;101302.00;5104591;28;20443;-59
2022/08/02 10:22:05;;;;;;;12.10;4.60;;;;;;;26.41;46.33;101294.78;5108950;28;20096;-59
2022/08/02 10:24:35;;;;;;;10.45;4.07;;;;;;;26.58;45.40;101300.22;5096407;28;20056;-59
2022/08/02 10:27:05;;;;;;;11.30;4.25;;;;;;;26.87;45.16;101286.53;5092666;28;20063;-60
2022/08/02 10:29:35;;;;;;;11.82;4.13;;;;;;;27.27;43.82;101287.34;5095177;28;20093;-60
2022/08/02 10:32:07;;;;;;;8.50;3.70;;;;;;;27.54;44.20;101288.25;5107828;28;20047;-60
2022/08/02 10:34:42;;;;;;;18.00;3.70;;;;;;;27.62;41.83;101284.25;5107871;28;20048;-60
2022/08/02 10:37:11;;;;;;;10.45;3.35;;;;;;;27.25;41.29;101275.88;5093137;28;20059;-59
2022/08/02 10:39:39;;;;;;;14.13;3.95;;;;;;;27.30;42.55;101276.78;5105786;28;20438;-60
2022/08/02 10:42:07;;;;;;;9.43;3.35;;;;;;;27.67;41.88;101283.47;5105854;28;20032;-59
2022/08/02 10:44:35;;;;;;;9.80;3.40;;;;;;;27.69;41.21;101271.25;5112843;28;20155;-59
2022/08/02 10:47:23;;;;;;;11.15;3.42;;;;;;;27.52;40.52;101276.81;5109547;28;20059;-59
2022/08/02 10:49:53;;;;;;;10.32;3.20;;;;;;;27.22;41.10;101265.50;5093766;28;20066;-59
2022/08/02 10:52:24;;;;;;;14.25;3.80;;;;;;;27.23;41.81;101281.56;5107196;28;20114;-62
2022/08/02 10:55:13;;;;;;;14.05;3.40;;;;;;;27.04;41.73;101277.50;5097518;28;20465;-59
2022/08/02 10:57:39;;;;;;;8.68;3.15;;;;;;;26.80;42.09;101277.72;5081097;28;20116;-59
2022/08/02 11:00:12;;;;;;;8.45;3.45;;;;;;;26.69;42.34;101274.03;5097017;28;20040;-59
2022/08/02 11:02:42;;;;;;;8.25;3.33;;;;;;;26.84;42.46;101272.59;5101099;28;20036;-59
2022/08/02 11:05:13;;;;;;;10.10;3.28;;;;;;;27.03;41.70;101282.09;5104050;28;20040;-59
2022/08/02 11:07:43;;;;;;;12.75;3.70;;;;;;;27.19;41.88;101266.81;5101587;28;20034;-59
2022/08/02 11:10:32;;;;;;;13.73;3.63;;;;;;;27.12;41.35;101269.75;5093528;28;20044;-60
2022/08/02 11:13:19;;;;;;;10.77;3.50;;;;;;;27.33;42.13;101270.03;5092357;28;20134;-60
2022/08/02 11:16:04;;;;;;;10.20;3.45;;;;;;;27.49;41.65;101268.31;5095542;28;20039;-60
2022/08/02 11:18:54;;;;;;;8.52;3.35;;;;;;;27.25;42.67;101265.81;5105272;28;20036;-60
2022/08/02 11:21:24;;;;;;;13.57;3.90;;;;;;;27.03;42.75;101271.22;5108632;28;20554;-61
2022/08/02 11:23:51;;;;;;;8.30;3.10;;;;;;;26.91;42.43;101274.06;5113742;28;20047;-60
2022/08/02 11:29:09;;;;;;;16.10;3.90;;;;;;;27.14;41.60;101270.31;5127314;27;20390;-60
2022/08/02 11:31:39;;;;;;;8.90;3.40;;;;;;;27.20;41.53;101269.28;5118074;28;20093;-60
2022/08/02 11:34:06;;;;;;;9.15;3.40;;;;;;;27.28;41.93;101272.66;5122004;27;20531;-60
2022/08/02 11:36:47;;;;;;;14.85;3.40;;;;;;;27.31;41.38;101272.19;5107778;28;20052;-60